Weather at Prince Rupert/Seal Cove Seaplane Base

Public forecast

Using degrees Celsius for public forecast. Weather courtesy of forecast.io.

Closest aviation weather report (METAR) to Prince Rupert/Seal Cove Seaplane Base

Closest report is Prince Rupert Airport, 6.3 nm (11.7 km) WSW. Retrieved 2020/09/22 22:24 UTC (25 minutes ago):

CYPR 222224Z AUTO 10006KT 9SM FEW050 SCT070 OVC089 14/08 A2971 RMK SLP063 DENSITY ALT 200FT

Closest aviation forecast (TAF) to Prince Rupert/Seal Cove Seaplane Base

Closest forecast is Prince Rupert Airport, 6.3 nm (11.7 km) WSW. Retrieved 2020/09/22 19:42 UTC (3 hours ago):

TAF CYPR 221840Z 2219/2307 12008KT P6SM FEW030 SCT050 OVC070 TEMPO 2219/2307 P6SM -SHRA BKN030 OVC050 RMK FCST BASED ON AUTO OBS NXT FCST BY 230100Z